Time;durP1;ratioP1;P1;durP2;ratioP2;P2;SDS_P1;SDS_P2;PMS_P1;PMS_P2;Temp;Humidity;BMP_temperature;BMP_pressure;BME280_temperature;BME280_humidity;BME280_pressure;Samples;Min_cycle;Max_cycle;Signal;HPM_P1;HPM_P2
2022/05/11 00:00:19;;;;;;;19.63;6.93;;;;;;;;;;4964664;28;20034;-85
2022/05/11 00:02:45;;;;;;;14.93;6.45;;;;;;;;;;4962784;28;20022;-85
2022/05/11 00:05:12;;;;;;;17.15;6.55;;;;;;;;;;4964149;28;20595;-85
2022/05/11 00:07:38;;;;;;;18.75;6.68;;;;;;;;;;4980309;28;20098;-85
2022/05/11 00:10:12;;;;;;;16.60;6.97;;;;;;;;;;4968602;28;20026;-85
2022/05/11 00:12:42;;;;;;;14.90;6.40;;;;;;;;;;4960153;28;20059;-85
2022/05/11 00:15:09;;;;;;;21.92;7.03;;;;;;;;;;4967549;28;20070;-85
2022/05/11 00:17:35;;;;;;;17.73;7.55;;;;;;;;;;4967255;28;20466;-85
2022/05/11 00:20:01;;;;;;;14.93;6.50;;;;;;;;;;4962980;28;20054;-85
2022/05/11 00:22:27;;;;;;;14.13;6.28;;;;;;;;;;4974118;28;20073;-85
2022/05/11 00:24:53;;;;;;;15.00;7.47;;;;;;;;;;4962673;28;20074;-85
2022/05/11 00:27:19;;;;;;;26.67;8.57;;;;;;;;;;4959938;28;20031;-84
2022/05/11 00:29:45;;;;;;;15.98;7.35;;;;;;;;;;4964257;28;20129;-85
2022/05/11 00:32:11;;;;;;;16.65;7.35;;;;;;;;;;4966252;28;20034;-85
2022/05/11 00:34:38;;;;;;;17.65;7.82;;;;;;;;;;4965889;28;20045;-85
2022/05/11 00:37:04;;;;;;;16.80;7.78;;;;;;;;;;4963564;28;20118;-86
2022/05/11 00:39:30;;;;;;;15.88;6.80;;;;;;;;;;4959784;28;20034;-86
2022/05/11 00:41:56;;;;;;;15.10;7.15;;;;;;;;;;4965956;28;20066;-85
2022/05/11 00:44:22;;;;;;;16.92;7.43;;;;;;;;;;4965474;28;20446;-85
2022/05/11 00:46:57;;;;;;;17.23;8.02;;;;;;;;;;4963360;28;20089;-85
2022/05/11 00:49:34;;;;;;;20.92;7.43;;;;;;;;;;4969144;28;20029;-85
2022/05/11 00:52:20;;;;;;;20.25;7.53;;;;;;;;;;4962542;28;20037;-86
2022/05/11 00:54:49;;;;;;;18.48;7.15;;;;;;;;;;4981024;28;20041;-85
2022/05/11 00:57:19;;;;;;;21.42;8.15;;;;;;;;;;4967059;28;20038;-85
2022/05/11 01:00:00;;;;;;;18.95;7.28;;;;;;;;;;4964767;28;20054;-85
2022/05/11 01:02:26;;;;;;;17.92;7.57;;;;;;;;;;4961129;28;20494;-86
2022/05/11 01:04:56;;;;;;;19.23;7.15;;;;;;;;;;4981003;28;20030;-86
2022/05/11 01:07:23;;;;;;;21.95;7.50;;;;;;;;;;4977607;28;20054;-86
2022/05/11 01:09:49;;;;;;;19.88;7.55;;;;;;;;;;4963468;28;20050;-85
2022/05/11 01:12:19;;;;;;;13.82;6.35;;;;;;;;;;4977607;28;20031;-85
2022/05/11 01:14:46;;;;;;;16.70;7.18;;;;;;;;;;4965417;28;20041;-85
2022/05/11 01:17:12;;;;;;;15.35;7.03;;;;;;;;;;4977959;28;20031;-85
2022/05/11 01:19:43;;;;;;;16.70;6.72;;;;;;;;;;4963361;28;20093;-85
2022/05/11 01:22:09;;;;;;;16.02;5.90;;;;;;;;;;4967372;28;20145;-84
2022/05/11 01:24:40;;;;;;;14.02;7.05;;;;;;;;;;4964343;28;20034;-85
2022/05/11 01:27:22;;;;;;;24.38;6.82;;;;;;;;;;4977947;28;20042;-85
2022/05/11 01:29:48;;;;;;;16.20;7.30;;;;;;;;;;4961187;28;20505;-85
2022/05/11 01:32:14;;;;;;;13.63;6.70;;;;;;;;;;4962263;28;20042;-85
2022/05/11 01:34:40;;;;;;;11.75;6.10;;;;;;;;;;4962605;28;20030;-85
2022/05/11 01:37:06;;;;;;;17.63;5.72;;;;;;;;;;4964380;28;20100;-85
2022/05/11 01:39:32;;;;;;;15.27;7.93;;;;;;;;;;4967473;28;20126;-85
2022/05/11 01:41:58;;;;;;;15.45;6.90;;;;;;;;;;4966844;28;20030;-85
2022/05/11 01:44:24;;;;;;;11.88;6.88;;;;;;;;;;4960137;28;20474;-85
2022/05/11 01:46:52;;;;;;;24.67;7.35;;;;;;;;;;4962670;28;20400;-85
2022/05/11 01:49:18;;;;;;;12.93;6.63;;;;;;;;;;4965232;28;20093;-84
2022/05/11 01:51:45;;;;;;;14.43;6.75;;;;;;;;;;4982283;28;20070;-85
2022/05/11 01:54:11;;;;;;;15.68;6.30;;;;;;;;;;4960916;28;20600;-85
2022/05/11 01:56:37;;;;;;;11.68;6.32;;;;;;;;;;4958554;28;20520;-85
2022/05/11 01:59:03;;;;;;;14.68;6.35;;;;;;;;;;4964562;28;20058;-85
2022/05/11 02:01:31;;;;;;;14.02;7.03;;;;;;;;;;4963364;28;20504;-85
2022/05/11 02:03:57;;;;;;;14.55;6.38;;;;;;;;;;4959621;28;20488;-85
2022/05/11 02:09:09;;;;;;;16.42;7.22;;;;;;;;;;4978158;28;20417;-85
2022/05/11 02:11:35;;;;;;;14.95;6.97;;;;;;;;;;4960497;28;20027;-85
2022/05/11 02:14:02;;;;;;;12.48;6.53;;;;;;;;;;4971998;28;20496;-85
2022/05/11 02:16:28;;;;;;;11.52;5.15;;;;;;;;;;4957533;28;20046;-85
2022/05/11 02:18:57;;;;;;;15.93;6.28;;;;;;;;;;4964285;28;20038;-85
2022/05/11 02:21:23;;;;;;;13.55;7.07;;;;;;;;;;4979973;28;20457;-85
2022/05/11 02:23:50;;;;;;;16.60;6.53;;;;;;;;;;4978381;28;20505;-86
2022/05/11 02:26:17;;;;;;;11.63;6.45;;;;;;;;;;4960151;28;20105;-85
2022/05/11 02:28:43;;;;;;;13.65;6.80;;;;;;;;;;4961445;28;20370;-85
2022/05/11 02:31:10;;;;;;;13.68;7.13;;;;;;;;;;4961299;28;20037;-85
2022/05/11 02:33:36;;;;;;;15.02;5.68;;;;;;;;;;4961607;28;20026;-85
2022/05/11 02:36:02;;;;;;;12.27;6.90;;;;;;;;;;4956296;28;20386;-85
2022/05/11 02:38:30;;;;;;;14.45;5.85;;;;;;;;;;4960368;28;20125;-85
2022/05/11 02:40:56;;;;;;;11.68;6.63;;;;;;;;;;4977052;28;20046;-85
2022/05/11 02:43:22;;;;;;;15.35;6.47;;;;;;;;;;4979901;28;20066;-85
2022/05/11 02:45:49;;;;;;;12.90;7.68;;;;;;;;;;4958383;28;20065;-86
2022/05/11 02:48:17;;;;;;;11.85;6.35;;;;;;;;;;4958778;28;20027;-85
2022/05/11 02:50:46;;;;;;;15.00;7.00;;;;;;;;;;4975299;28;20031;-85
2022/05/11 02:53:13;;;;;;;11.27;5.97;;;;;;;;;;4954292;28;20034;-85
2022/05/11 02:55:40;;;;;;;17.63;6.50;;;;;;;;;;4975837;28;20114;-85
2022/05/11 02:58:06;;;;;;;13.20;6.00;;;;;;;;;;4965387;28;20034;-86
2022/05/11 03:00:33;;;;;;;16.13;5.47;;;;;;;;;;4966621;28;20367;-85
2022/05/11 03:03:01;;;;;;;17.63;6.70;;;;;;;;;;4960888;28;20031;-85
2022/05/11 03:05:27;;;;;;;16.38;6.63;;;;;;;;;;4979030;28;20042;-85
2022/05/11 03:07:53;;;;;;;12.05;6.03;;;;;;;;;;4965712;28;20085;-86
2022/05/11 03:10:19;;;;;;;22.02;6.50;;;;;;;;;;4976449;28;20057;-86
2022/05/11 03:12:45;;;;;;;19.38;7.15;;;;;;;;;;4979284;28;20466;-86
2022/05/11 03:15:11;;;;;;;14.50;5.93;;;;;;;;;;4962159;28;20501;-86
2022/05/11 03:17:38;;;;;;;12.80;6.22;;;;;;;;;;4953833;28;20050;-85
2022/05/11 03:20:05;;;;;;;14.57;6.35;;;;;;;;;;4961244;28;20033;-86
2022/05/11 03:22:31;;;;;;;13.93;6.15;;;;;;;;;;4976267;28;20041;-86
2022/05/11 03:24:57;;;;;;;13.00;5.55;;;;;;;;;;4959687;28;20049;-86
2022/05/11 03:27:23;;;;;;;16.13;6.07;;;;;;;;;;4957687;28;20657;-86
2022/05/11 03:29:50;;;;;;;15.10;5.60;;;;;;;;;;4958756;28;20484;-86
2022/05/11 03:35:00;;;;;;;13.55;5.28;;;;;;;;;;4980331;28;20041;-86
2022/05/11 03:37:27;;;;;;;7.10;3.83;;;;;;;;;;4965710;28;20072;-85
2022/05/11 03:39:53;;;;;;;10.77;5.90;;;;;;;;;;4957293;28;20030;-86
2022/05/11 03:42:22;;;;;;;10.48;5.45;;;;;;;;;;4964687;28;20759;-85
2022/05/11 03:44:48;;;;;;;12.15;5.60;;;;;;;;;;4965254;28;20029;-85
2022/05/11 03:47:14;;;;;;;10.82;4.97;;;;;;;;;;4983336;28;20406;-85
2022/05/11 03:49:40;;;;;;;14.80;5.03;;;;;;;;;;4985771;28;20030;-85
2022/05/11 03:52:06;;;;;;;14.80;4.88;;;;;;;;;;4964447;28;20093;-85
2022/05/11 03:54:33;;;;;;;13.38;5.78;;;;;;;;;;4972866;28;20034;-86
2022/05/11 03:56:58;;;;;;;12.57;5.10;;;;;;;;;;4966840;28;20070;-86
2022/05/11 03:59:24;;;;;;;12.30;5.50;;;;;;;;;;4986238;28;20482;-86
2022/05/11 04:01:50;;;;;;;11.52;4.65;;;;;;;;;;4961122;28;20046;-85
2022/05/11 04:04:16;;;;;;;12.68;4.68;;;;;;;;;;4981525;28;20437;-85
2022/05/11 04:06:43;;;;;;;15.52;5.15;;;;;;;;;;4979935;28;20019;-86
2022/05/11 04:09:09;;;;;;;11.70;4.38;;;;;;;;;;4962944;28;20054;-86
2022/05/11 04:11:36;;;;;;;12.25;5.57;;;;;;;;;;4978098;28;20051;-85
2022/05/11 04:14:02;;;;;;;14.48;5.45;;;;;;;;;;4983362;28;20030;-86
2022/05/11 04:16:28;;;;;;;10.55;3.53;;;;;;;;;;4966095;28;20682;-85
2022/05/11 04:18:54;;;;;;;19.05;5.30;;;;;;;;;;4957628;28;20125;-85
2022/05/11 04:21:20;;;;;;;11.75;5.18;;;;;;;;;;4978438;28;20045;-86
2022/05/11 04:23:46;;;;;;;11.02;5.05;;;;;;;;;;4962914;28;20042;-86
2022/05/11 04:26:13;;;;;;;12.18;5.97;;;;;;;;;;4977741;28;20045;-85
2022/05/11 04:28:39;;;;;;;13.00;4.72;;;;;;;;;;4960445;28;20128;-85
2022/05/11 04:31:09;;;;;;;11.23;5.53;;;;;;;;;;4954728;28;20050;-85
2022/05/11 04:33:35;;;;;;;11.75;5.15;;;;;;;;;;4956531;28;20042;-85
2022/05/11 04:36:02;;;;;;;12.77;5.60;;;;;;;;;;4966950;28;20114;-85
2022/05/11 04:38:28;;;;;;;11.20;4.80;;;;;;;;;;4963637;28;20042;-86
2022/05/11 04:40:57;;;;;;;10.02;3.55;;;;;;;;;;4955140;28;20026;-86
2022/05/11 04:43:29;;;;;;;16.52;5.43;;;;;;;;;;4957075;28;20034;-86
2022/05/11 04:45:56;;;;;;;13.95;5.60;;;;;;;;;;4963918;28;20075;-85
2022/05/11 04:48:22;;;;;;;13.90;5.38;;;;;;;;;;4961760;28;20129;-85
2022/05/11 04:50:48;;;;;;;14.07;6.22;;;;;;;;;;4959454;28;20049;-85
2022/05/11 04:53:15;;;;;;;15.13;5.85;;;;;;;;;;4967856;28;20030;-85
2022/05/11 04:55:41;;;;;;;11.70;5.20;;;;;;;;;;4957227;28;20038;-85
2022/05/11 04:58:07;;;;;;;9.75;4.63;;;;;;;;;;4958662;28;20394;-87
2022/05/11 05:00:34;;;;;;;12.20;5.63;;;;;;;;;;4977384;28;20051;-86
2022/05/11 05:03:02;;;;;;;12.95;4.53;;;;;;;;;;4979483;28;20543;-85
2022/05/11 05:05:28;;;;;;;11.10;5.60;;;;;;;;;;4953175;28;20026;-85
2022/05/11 05:07:54;;;;;;;13.95;5.00;;;;;;;;;;4956696;28;20757;-86
2022/05/11 05:10:21;;;;;;;15.15;4.82;;;;;;;;;;4957819;28;20061;-85
2022/05/11 05:12:47;;;;;;;10.02;4.85;;;;;;;;;;4957316;28;20050;-86
2022/05/11 05:15:14;;;;;;;20.95;5.50;;;;;;;;;;4980619;28;20041;-86
2022/05/11 05:17:40;;;;;;;10.77;4.78;;;;;;;;;;4954934;28;20605;-86
2022/05/11 05:20:09;;;;;;;11.77;5.30;;;;;;;;;;4957937;28;20132;-86
2022/05/11 05:22:35;;;;;;;17.52;4.80;;;;;;;;;;4960168;28;20030;-86
2022/05/11 05:25:02;;;;;;;15.98;5.47;;;;;;;;;;4961146;28;20030;-86
2022/05/11 05:27:28;;;;;;;13.48;4.93;;;;;;;;;;4963516;28;20035;-86
2022/05/11 05:32:40;;;;;;;15.48;5.65;;;;;;;;;;4976563;28;20725;-85
2022/05/11 05:35:07;;;;;;;19.13;5.05;;;;;;;;;;4961046;28;20060;-85
2022/05/11 05:37:32;;;;;;;10.50;4.75;;;;;;;;;;4963207;28;20449;-85
2022/05/11 05:39:59;;;;;;;15.35;4.93;;;;;;;;;;4957507;28;20037;-86
2022/05/11 05:42:27;;;;;;;11.98;4.60;;;;;;;;;;4967453;28;20031;-85
2022/05/11 05:44:53;;;;;;;16.27;5.50;;;;;;;;;;4980208;28;20545;-86
2022/05/11 05:47:19;;;;;;;17.95;4.82;;;;;;;;;;4960777;28;20121;-86
2022/05/11 05:49:45;;;;;;;19.38;4.85;;;;;;;;;;4952802;28;20030;-86
2022/05/11 05:52:18;;;;;;;16.50;5.22;;;;;;;;;;4962220;28;20788;-87
2022/05/11 05:54:45;;;;;;;16.35;4.65;;;;;;;;;;4951822;28;20030;-86
2022/05/11 05:57:12;;;;;;;15.35;4.65;;;;;;;;;;4952490;28;20073;-87
2022/05/11 05:59:47;;;;;;;20.42;5.45;;;;;;;;;;4959976;28;20084;-86
2022/05/11 06:02:19;;;;;;;19.35;5.03;;;;;;;;;;4978586;28;20029;-87
2022/05/11 06:04:47;;;;;;;9.65;4.85;;;;;;;;;;4974782;28;20413;-86
2022/05/11 06:07:13;;;;;;;17.05;4.90;;;;;;;;;;4961448;28;21183;-86
2022/05/11 06:09:40;;;;;;;11.95;4.85;;;;;;;;;;4980264;28;20042;-86
2022/05/11 06:12:07;;;;;;;10.90;3.53;;;;;;;;;;4962274;28;20042;-87
2022/05/11 06:14:33;;;;;;;12.63;5.05;;;;;;;;;;4962887;28;20061;-86
2022/05/11 06:16:59;;;;;;;18.42;4.78;;;;;;;;;;4973155;28;20038;-87
2022/05/11 06:19:26;;;;;;;14.45;4.20;;;;;;;;;;4961283;28;20026;-87
2022/05/11 06:21:52;;;;;;;18.08;4.60;;;;;;;;;;4963415;28;20046;-87
2022/05/11 06:24:18;;;;;;;21.73;5.82;;;;;;;;;;4957997;28;20108;-86
2022/05/11 06:26:44;;;;;;;22.05;5.45;;;;;;;;;;4976231;28;20027;-87
2022/05/11 06:29:11;;;;;;;14.35;5.05;;;;;;;;;;4959969;28;20572;-86
2022/05/11 06:31:37;;;;;;;14.18;5.60;;;;;;;;;;4964174;28;20081;-85
2022/05/11 06:34:03;;;;;;;16.83;4.95;;;;;;;;;;4958126;28;20038;-86
2022/05/11 06:36:29;;;;;;;16.63;4.88;;;;;;;;;;4977622;28;20097;-86
2022/05/11 06:38:56;;;;;;;12.15;4.43;;;;;;;;;;4976630;28;20037;-87
2022/05/11 06:41:23;;;;;;;20.20;4.43;;;;;;;;;;4964816;28;20050;-86
2022/05/11 06:43:51;;;;;;;18.27;5.10;;;;;;;;;;4976573;28;20030;-86
2022/05/11 06:46:17;;;;;;;9.45;4.53;;;;;;;;;;4961220;28;20622;-86
2022/05/11 06:48:45;;;;;;;14.65;4.70;;;;;;;;;;4967375;28;20031;-86
2022/05/11 06:51:11;;;;;;;22.75;4.88;;;;;;;;;;4964381;28;20117;-86
2022/05/11 06:59:21;;;;;;;16.92;4.95;;;;;;;;;;4982531;28;20122;-86
2022/05/11 07:01:48;;;;;;;21.73;5.68;;;;;;;;;;4961405;28;20039;-86
2022/05/11 07:04:14;;;;;;;22.63;5.82;;;;;;;;;;4953959;28;20080;-86
2022/05/11 07:06:40;;;;;;;21.80;5.35;;;;;;;;;;4963046;28;20034;-86
2022/05/11 07:09:07;;;;;;;17.42;5.40;;;;;;;;;;4978963;28;20045;-86
2022/05/11 07:14:18;;;;;;;14.73;5.72;;;;;;;;;;4979513;28;20096;-86
2022/05/11 07:16:43;;;;;;;14.50;4.78;;;;;;;;;;4953647;28;20068;-86
2022/05/11 07:19:10;;;;;;;20.13;5.93;;;;;;;;;;4964646;28;20034;-87
2022/05/11 07:21:36;;;;;;;14.73;4.72;;;;;;;;;;4958547;28;20602;-87
2022/05/11 07:24:02;;;;;;;15.05;4.18;;;;;;;;;;4974788;28;20101;-86
2022/05/11 07:26:28;;;;;;;18.05;5.18;;;;;;;;;;4955710;28;20035;-86
2022/05/11 07:28:54;;;;;;;15.27;5.18;;;;;;;;;;4952785;28;20187;-86
2022/05/11 07:31:19;;;;;;;12.77;4.95;;;;;;;;;;4959804;28;20109;-86
2022/05/11 07:33:45;;;;;;;19.23;5.05;;;;;;;;;;4981525;28;23076;-87
2022/05/11 07:36:12;;;;;;;13.82;4.63;;;;;;;;;;4951749;28;20065;-86
2022/05/11 07:38:40;;;;;;;18.08;5.10;;;;;;;;;;4959514;28;20042;-86
2022/05/11 07:41:06;;;;;;;25.98;6.82;;;;;;;;;;4956214;28;20538;-86
2022/05/11 07:43:33;;;;;;;11.60;4.55;;;;;;;;;;4959893;28;21984;-86
2022/05/11 07:45:59;;;;;;;13.52;5.05;;;;;;;;;;4954071;28;20030;-86
2022/05/11 07:48:26;;;;;;;9.63;2.97;;;;;;;;;;4961266;28;20033;-85
2022/05/11 07:50:52;;;;;;;19.63;4.30;;;;;;;;;;4954350;28;20026;-86
2022/05/11 07:53:18;;;;;;;16.35;4.50;;;;;;;;;;4978442;28;20080;-86
2022/05/11 07:55:44;;;;;;;16.48;4.70;;;;;;;;;;4964673;28;20030;-86
2022/05/11 08:00:59;;;;;;;16.80;4.57;;;;;;;;;;4977152;28;20109;-86
2022/05/11 08:03:25;;;;;;;15.30;3.63;;;;;;;;;;4965485;28;20405;-86
2022/05/11 08:05:51;;;;;;;8.80;3.47;;;;;;;;;;4978166;28;20035;-86
2022/05/11 08:08:18;;;;;;;17.27;4.32;;;;;;;;;;4952629;28;20167;-86
2022/05/11 08:10:45;;;;;;;16.13;3.47;;;;;;;;;;4965547;28;20038;-87
2022/05/11 08:13:12;;;;;;;13.70;4.38;;;;;;;;;;4959162;28;20802;-86
2022/05/11 08:15:40;;;;;;;15.02;3.33;;;;;;;;;;4963421;28;20042;-87
2022/05/11 08:18:07;;;;;;;18.30;3.85;;;;;;;;;;4953317;28;20414;-88
2022/05/11 08:20:41;;;;;;;7.88;2.75;;;;;;;;;;4960391;28;20711;-86
2022/05/11 08:23:08;;;;;;;20.05;4.28;;;;;;;;;;4983189;28;20429;-87
2022/05/11 08:25:35;;;;;;;7.82;3.17;;;;;;;;;;4955646;28;20057;-87
2022/05/11 08:28:02;;;;;;;13.68;3.55;;;;;;;;;;4970644;28;20030;-86
2022/05/11 08:33:24;;;;;;;15.63;3.40;;;;;;;;;;4977955;28;20053;-87
2022/05/11 08:35:52;;;;;;;14.68;4.20;;;;;;;;;;4964579;28;20441;-86
2022/05/11 08:38:18;;;;;;;13.02;4.10;;;;;;;;;;4960123;28;20485;-86
2022/05/11 08:41:06;;;;;;;15.30;4.03;;;;;;;;;;4957785;28;20200;-87
2022/05/11 08:43:33;;;;;;;15.95;3.40;;;;;;;;;;4961695;28;20135;-86
2022/05/11 08:46:11;;;;;;;20.02;4.03;;;;;;;;;;4963364;28;20022;-87
2022/05/11 08:48:43;;;;;;;17.30;3.75;;;;;;;;;;4973960;28;20568;-87
2022/05/11 08:51:13;;;;;;;12.60;3.05;;;;;;;;;;4959170;28;21298;-87
2022/05/11 08:53:41;;;;;;;18.50;3.88;;;;;;;;;;4961870;28;20042;-87
2022/05/11 08:56:12;;;;;;;13.30;3.90;;;;;;;;;;4969786;28;20708;-87
2022/05/11 08:58:48;;;;;;;19.50;3.53;;;;;;;;;;4969704;28;20507;-87
2022/05/11 09:01:30;;;;;;;12.63;3.30;;;;;;;;;;4964582;28;20050;-86
2022/05/11 09:03:58;;;;;;;10.60;3.13;;;;;;;;;;4979094;28;20037;-86
2022/05/11 09:06:29;;;;;;;9.68;2.65;;;;;;;;;;4963565;28;20046;-87
2022/05/11 09:08:56;;;;;;;10.65;3.05;;;;;;;;;;4961133;28;20160;-87
2022/05/11 09:11:42;;;;;;;16.48;3.33;;;;;;;;;;4962595;28;20096;-87
2022/05/11 09:14:17;;;;;;;12.32;3.25;;;;;;;;;;4973794;28;20030;-87
2022/05/11 09:16:45;;;;;;;18.20;3.28;;;;;;;;;;4973623;28;20777;-86
2022/05/11 09:19:19;;;;;;;21.60;3.45;;;;;;;;;;4975571;28;20034;-86
2022/05/11 09:21:50;;;;;;;14.35;4.10;;;;;;;;;;4965834;28;20039;-87
2022/05/11 09:24:16;;;;;;;9.63;2.85;;;;;;;;;;4958821;28;20743;-87
2022/05/11 09:26:44;;;;;;;13.98;3.58;;;;;;;;;;4966863;28;20053;-87
2022/05/11 09:29:31;;;;;;;17.77;2.67;;;;;;;;;;4965123;28;20076;-87
2022/05/11 09:32:19;;;;;;;13.32;3.10;;;;;;;;;;4976852;28;20030;-87
2022/05/11 09:34:45;;;;;;;10.98;3.38;;;;;;;;;;4975193;28;20037;-87
2022/05/11 09:37:23;;;;;;;10.40;2.60;;;;;;;;;;4964862;28;20038;-87
2022/05/11 09:39:53;;;;;;;18.50;3.17;;;;;;;;;;4960113;28;20050;-87
2022/05/11 09:42:21;;;;;;;14.88;2.90;;;;;;;;;;4963809;28;20042;-87
2022/05/11 09:44:49;;;;;;;15.10;2.67;;;;;;;;;;4962944;28;20092;-87
2022/05/11 09:47:27;;;;;;;9.05;2.65;;;;;;;;;;4962980;28;20034;-87
2022/05/11 09:49:53;;;;;;;10.57;3.13;;;;;;;;;;4972939;28;20030;-87
2022/05/11 09:52:34;;;;;;;7.22;2.33;;;;;;;;;;4969492;28;20038;-86
2022/05/11 09:55:03;;;;;;;12.52;4.32;;;;;;;;;;4966090;28;20037;-87
2022/05/11 09:57:29;;;;;;;14.15;3.22;;;;;;;;;;4975604;28;20038;-88
2022/05/11 10:00:07;;;;;;;13.70;3.15;;;;;;;;;;4964164;28;20038;-87
2022/05/11 10:02:38;;;;;;;10.02;3.00;;;;;;;;;;4977544;28;20042;-87
2022/05/11 10:05:09;;;;;;;9.57;2.80;;;;;;;;;;4952948;28;20490;-87
2022/05/11 10:07:44;;;;;;;11.77;2.67;;;;;;;;;;4964786;28;20541;-87
2022/05/11 10:10:12;;;;;;;11.00;2.85;;;;;;;;;;4962972;28;20035;-86
2022/05/11 10:12:40;;;;;;;11.73;2.83;;;;;;;;;;4954070;28;20068;-87
2022/05/11 10:23:56;;;;;;;12.35;3.22;;;;;;;;;;4979623;28;20058;-86
2022/05/11 10:26:50;;;;;;;10.80;2.05;;;;;;;;;;4965298;28;20143;-87
2022/05/11 10:29:17;;;;;;;;;;;;;;;;;;4932833;28;20042;-87
2022/05/11 10:31:48;;;;;;;7.63;2.72;;;;;;;;;;4979857;28;20404;-87
2022/05/11 10:34:19;;;;;;;8.45;2.17;;;;;;;;;;4962490;28;20034;-87
2022/05/11 10:36:46;;;;;;;7.65;2.58;;;;;;;;;;4963183;28;20030;-87
2022/05/11 10:39:38;;;;;;;9.63;2.78;;;;;;;;;;4964363;28;20042;-88
2022/05/11 10:42:04;;;;;;;6.72;2.63;;;;;;;;;;4961578;28;20034;-87
2022/05/11 10:44:33;;;;;;;11.38;2.60;;;;;;;;;;4949765;28;20033;-86
2022/05/11 10:47:03;;;;;;;10.77;3.10;;;;;;;;;;4955419;28;20038;-86
2022/05/11 10:49:40;;;;;;;13.70;2.70;;;;;;;;;;4961588;28;20387;-86
2022/05/11 10:52:26;;;;;;;8.00;2.45;;;;;;;;;;4959217;28;20142;-87
2022/05/11 10:54:52;;;;;;;13.27;2.85;;;;;;;;;;4956729;28;20035;-86
2022/05/11 10:57:21;;;;;;;9.80;2.63;;;;;;;;;;4953020;28;20042;-87
2022/05/11 11:00:03;;;;;;;10.75;2.40;;;;;;;;;;4973526;28;23445;-86
2022/05/11 11:02:51;;;;;;;13.15;2.47;;;;;;;;;;4952453;28;20062;-88
2022/05/11 11:05:36;;;;;;;11.38;2.60;;;;;;;;;;4957609;28;20092;-87
2022/05/11 11:08:21;;;;;;;12.02;2.60;;;;;;;;;;4955093;28;20496;-87
2022/05/11 11:10:51;;;;;;;13.38;2.72;;;;;;;;;;4958751;28;20526;-88
2022/05/11 11:13:17;;;;;;;13.48;3.17;;;;;;;;;;4955986;28;20386;-88
2022/05/11 11:15:44;;;;;;;15.63;3.80;;;;;;;;;;4971872;28;20039;-88
2022/05/11 11:18:12;;;;;;;9.98;2.70;;;;;;;;;;4956497;28;20776;-88
2022/05/11 11:20:40;;;;;;;10.63;2.70;;;;;;;;;;4962886;28;20076;-86
2022/05/11 11:23:12;;;;;;;11.55;3.40;;;;;;;;;;4960968;28;20034;-87
2022/05/11 11:25:44;;;;;;;8.70;3.28;;;;;;;;;;4956077;28;20387;-85
2022/05/11 11:28:13;;;;;;;14.55;3.40;;;;;;;;;;4966887;28;20077;-85
2022/05/11 11:30:41;;;;;;;13.63;3.58;;;;;;;;;;4958182;28;20117;-85
2022/05/11 11:33:15;;;;;;;14.02;3.28;;;;;;;;;;4963423;28;20042;-85
2022/05/11 11:35:52;;;;;;;10.20;3.43;;;;;;;;;;4953133;28;20057;-85
2022/05/11 11:38:23;;;;;;;22.65;3.67;;;;;;;;;;4969804;28;20042;-86
2022/05/11 11:41:08;;;;;;;9.85;3.30;;;;;;;;;;4955685;28;20757;-86
2022/05/11 11:43:43;;;;;;;10.95;3.20;;;;;;;;;;4965167;28;20034;-86
2022/05/11 11:46:09;;;;;;;14.48;3.83;;;;;;;;;;4961766;28;20046;-86
2022/05/11 11:48:36;;;;;;;17.30;3.55;;;;;;;;;;4982412;28;20109;-86
2022/05/11 11:51:03;;;;;;;16.48;3.00;;;;;;;;;;4956524;28;20068;-86
2022/05/11 11:53:39;;;;;;;9.40;3.00;;;;;;;;;;4959258;28;20042;-85
2022/05/11 11:56:05;;;;;;;;;;;;;;;;;;4976986;28;20574;-86
2022/05/11 11:58:31;;;;;;;6.72;1.92;;;;;;;;;;4978355;28;19910;-86
2022/05/11 12:01:04;;;;;;;8.98;2.78;;;;;;;;;;4966292;28;20426;-86
2022/05/11 12:03:33;;;;;;;7.47;2.20;;;;;;;;;;4964117;28;20069;-86
2022/05/11 12:15:01;;;;;;;13.50;2.40;;;;;;;;;;4980875;28;20033;-86
2022/05/11 12:17:02;;;;;;;8.55;2.00;;;;;;;;;;4979801;28;20047;-86
2022/05/11 12:19:29;;;;;;;4.20;1.58;;;;;;;;;;4971626;28;20031;-86
2022/05/11 12:22:02;;;;;;;9.13;2.42;;;;;;;;;;4967369;28;20031;-86
2022/05/11 12:24:38;;;;;;;9.82;0.93;;;;;;;;;;4977126;28;20607;-86
2022/05/11 12:27:12;;;;;;;11.55;1.95;;;;;;;;;;4970479;28;20477;-86
2022/05/11 12:29:57;;;;;;;7.35;1.77;;;;;;;;;;4965282;28;20099;-85
2022/05/11 12:32:50;;;;;;;10.55;1.35;;;;;;;;;;4963032;28;20026;-86
2022/05/11 12:35:18;;;;;;;7.57;1.60;;;;;;;;;;4957484;28;20101;-86
2022/05/11 12:37:52;;;;;;;8.00;1.50;;;;;;;;;;4977247;28;20453;-86
2022/05/11 12:40:20;;;;;;;5.03;1.90;;;;;;;;;;4975653;28;20625;-85
2022/05/11 12:42:48;;;;;;;9.10;1.50;;;;;;;;;;4965603;28;20046;-86
2022/05/11 12:45:33;;;;;;;6.45;1.60;;;;;;;;;;4963645;28;20038;-86
2022/05/11 12:47:59;;;;;;;12.38;1.98;;;;;;;;;;4976339;28;20482;-85
2022/05/11 12:50:37;;;;;;;10.10;2.17;;;;;;;;;;4961980;28;20400;-86
2022/05/11 12:53:15;;;;;;;5.13;2.30;;;;;;;;;;4965356;28;20509;-85
2022/05/11 12:55:43;;;;;;;7.38;1.50;;;;;;;;;;4979337;28;20045;-87
2022/05/11 12:58:15;;;;;;;5.25;1.48;;;;;;;;;;4966206;28;20037;-87
2022/05/11 13:00:48;;;;;;;7.53;1.58;;;;;;;;;;4954351;28;20588;-87
2022/05/11 13:03:26;;;;;;;5.75;1.40;;;;;;;;;;4969108;28;20489;-86
2022/05/11 13:05:53;;;;;;;3.60;1.08;;;;;;;;;;4960212;28;20033;-87
2022/05/11 13:08:19;;;;;;;2.53;0.82;;;;;;;;;;4977486;28;20026;-87
2022/05/11 13:10:46;;;;;;;10.07;1.63;;;;;;;;;;4956774;28;20078;-86
2022/05/11 13:13:14;;;;;;;8.13;1.65;;;;;;;;;;4962941;28;20093;-87
2022/05/11 13:15:44;;;;;;;18.33;2.13;;;;;;;;;;4957707;28;20520;-90
2022/05/11 13:18:13;;;;;;;11.90;1.77;;;;;;;;;;4952971;28;20073;-87
2022/05/11 13:20:41;;;;;;;6.18;1.65;;;;;;;;;;4973266;28;20027;-87
2022/05/11 13:23:31;;;;;;;5.88;1.33;;;;;;;;;;4954915;28;20042;-86
2022/05/11 13:25:58;;;;;;;12.20;1.83;;;;;;;;;;4961273;28;20042;-86
2022/05/11 13:28:26;;;;;;;11.77;2.15;;;;;;;;;;4964615;28;20034;-86
2022/05/11 13:30:54;;;;;;;5.68;1.60;;;;;;;;;;4954773;28;20038;-86
2022/05/11 13:33:37;;;;;;;9.95;2.10;;;;;;;;;;4964032;28;20038;-87
2022/05/11 13:36:05;;;;;;;10.95;2.05;;;;;;;;;;4963231;28;20054;-86
2022/05/11 13:38:31;;;;;;;9.18;2.22;;;;;;;;;;4966289;28;20057;-86
2022/05/11 13:40:57;;;;;;;5.57;1.63;;;;;;;;;;4967790;28;20026;-87
2022/05/11 13:43:22;;;;;;;7.35;1.90;;;;;;;;;;4953242;28;20062;-86
2022/05/11 13:46:00;;;;;;;10.95;2.25;;;;;;;;;;4959541;28;20030;-87
2022/05/11 13:48:28;;;;;;;5.63;1.50;;;;;;;;;;4971315;28;20975;-87
2022/05/11 13:51:05;;;;;;;13.73;1.95;;;;;;;;;;4979948;28;20432;-86
2022/05/11 13:53:33;;;;;;;6.60;1.77;;;;;;;;;;4977098;28;20430;-86
2022/05/11 13:56:21;;;;;;;8.15;1.92;;;;;;;;;;4961189;28;20077;-85
2022/05/11 13:58:57;;;;;;;6.85;1.67;;;;;;;;;;4961622;28;20102;-86
2022/05/11 14:01:24;;;;;;;14.48;2.40;;;;;;;;;;4973179;28;20490;-87
2022/05/11 14:03:58;;;;;;;12.05;2.30;;;;;;;;;;4955121;28;20520;-85
2022/05/11 14:06:26;;;;;;;8.65;2.30;;;;;;;;;;4976191;28;20490;-86
2022/05/11 14:08:52;;;;;;;16.35;2.60;;;;;;;;;;4979005;28;20069;-86
2022/05/11 14:11:19;;;;;;;13.32;2.72;;;;;;;;;;4960472;28;20069;-86
2022/05/11 14:13:45;;;;;;;16.70;3.72;;;;;;;;;;4972049;28;20034;-87
2022/05/11 14:16:13;;;;;;;12.23;3.50;;;;;;;;;;4956903;28;20067;-86
2022/05/11 14:18:41;;;;;;;11.77;2.38;;;;;;;;;;4978440;28;20030;-86
2022/05/11 14:21:07;;;;;;;14.23;2.95;;;;;;;;;;4977817;28;20498;-86
2022/05/11 14:23:33;;;;;;;16.88;3.22;;;;;;;;;;4963999;28;20428;-86
2022/05/11 14:26:00;;;;;;;7.18;2.33;;;;;;;;;;4959919;28;20030;-86
2022/05/11 14:28:26;;;;;;;7.55;2.00;;;;;;;;;;4961565;28;20039;-86
2022/05/11 14:30:53;;;;;;;5.75;1.25;;;;;;;;;;4966509;28;20042;-86
2022/05/11 14:33:19;;;;;;;9.85;2.80;;;;;;;;;;4959135;28;20065;-86
2022/05/11 14:35:46;;;;;;;7.35;1.67;;;;;;;;;;4963544;28;20041;-86
2022/05/11 14:38:12;;;;;;;11.52;2.28;;;;;;;;;;4960896;28;20509;-87
2022/05/11 14:40:39;;;;;;;8.88;1.98;;;;;;;;;;4957477;28;20465;-87
2022/05/11 14:43:05;;;;;;;14.27;2.30;;;;;;;;;;4959191;28;20039;-87
2022/05/11 14:45:34;;;;;;;11.40;2.10;;;;;;;;;;4963703;28;20030;-86
2022/05/11 14:48:02;;;;;;;5.32;1.98;;;;;;;;;;4954115;28;20038;-86
2022/05/11 14:50:28;;;;;;;7.47;1.92;;;;;;;;;;4961220;28;20042;-86
2022/05/11 14:52:56;;;;;;;8.85;2.47;;;;;;;;;;4980603;28;20113;-86
2022/05/11 14:55:22;;;;;;;9.27;1.77;;;;;;;;;;4959636;28;20034;-86
2022/05/11 15:03:26;;;;;;;12.27;1.83;;;;;;;;;;4980747;28;20509;-86
2022/05/11 15:05:52;;;;;;;7.55;1.42;;;;;;;;;;4961659;28;20465;-86
2022/05/11 15:08:19;;;;;;;8.27;1.60;;;;;;;;;;4975190;28;20113;-87
2022/05/11 15:10:45;;;;;;;5.93;1.55;;;;;;;;;;4960521;28;20023;-87
2022/05/11 15:15:55;;;;;;;7.07;1.65;;;;;;;;;;4977030;28;20076;-86
2022/05/11 15:18:22;;;;;;;7.30;1.38;;;;;;;;;;4976719;28;20061;-87
2022/05/11 15:20:49;;;;;;;4.85;1.30;;;;;;;;;;4979914;28;20041;-87
2022/05/11 15:23:16;;;;;;;13.18;1.50;;;;;;;;;;4957095;28;20031;-86
2022/05/11 15:25:42;;;;;;;12.70;1.65;;;;;;;;;;4977419;28;20062;-87
2022/05/11 15:28:09;;;;;;;6.32;1.63;;;;;;;;;;4966651;28;20038;-87
2022/05/11 15:30:37;;;;;;;6.90;1.55;;;;;;;;;;4967882;28;20043;-86